Time;durP1;ratioP1;P1;durP2;ratioP2;P2;SDS_P1;SDS_P2;PMS_P1;PMS_P2;Temp;Humidity;BMP_temperature;BMP_pressure;BME280_temperature;BME280_humidity;BME280_pressure;Samples;Min_cycle;Max_cycle;Signal;HPM_P1;HPM_P2
2023/08/11 00:00:04;;;;;;;10.67;10.03;;;;;;;;;;5063855;28;20532;-77
2023/08/11 00:02:30;;;;;;;9.73;9.00;;;;;;;;;;5064060;28;20428;-78
2023/08/11 00:04:57;;;;;;;9.53;9.23;;;;;;;;;;5063867;28;20752;-79
2023/08/11 00:07:23;;;;;;;10.20;9.50;;;;;;;;;;5057524;28;21397;-77
2023/08/11 00:09:51;;;;;;;9.43;8.93;;;;;;;;;;5063772;28;20995;-78
2023/08/11 00:12:17;;;;;;;10.63;9.80;;;;;;;;;;5063921;28;20424;-78
2023/08/11 00:14:43;;;;;;;10.17;9.50;;;;;;;;;;5063205;28;20431;-80
2023/08/11 00:17:10;;;;;;;11.43;10.70;;;;;;;;;;5060116;28;20432;-78
2023/08/11 00:19:36;;;;;;;10.50;10.10;;;;;;;;;;5044849;28;20508;-78
2023/08/11 00:22:05;;;;;;;10.97;10.27;;;;;;;;;;5063650;28;20864;-78
2023/08/11 00:24:31;;;;;;;10.47;9.87;;;;;;;;;;5059925;28;20987;-80
2023/08/11 00:26:57;;;;;;;10.33;9.63;;;;;;;;;;5064073;28;20560;-78
2023/08/11 00:29:24;;;;;;;10.90;10.30;;;;;;;;;;5063673;28;20420;-79
2023/08/11 00:31:50;;;;;;;10.80;9.90;;;;;;;;;;5063427;28;20437;-77
2023/08/11 00:34:16;;;;;;;10.13;9.63;;;;;;;;;;5064289;28;20428;-78
2023/08/11 00:36:42;;;;;;;11.20;10.60;;;;;;;;;;5064042;28;20429;-77
2023/08/11 00:39:09;;;;;;;11.60;10.80;;;;;;;;;;5063564;28;20439;-77
2023/08/11 00:41:35;;;;;;;10.70;9.83;;;;;;;;;;5063986;28;20421;-78
2023/08/11 00:44:01;;;;;;;10.90;10.13;;;;;;;;;;5063506;28;20978;-78
2023/08/11 00:46:27;;;;;;;9.77;9.27;;;;;;;;;;5063519;28;20428;-78
2023/08/11 00:48:53;;;;;;;10.57;9.97;;;;;;;;;;5063172;28;20431;-78
2023/08/11 00:51:22;;;;;;;10.83;10.23;;;;;;;;;;5063594;28;20912;-78
2023/08/11 00:53:49;;;;;;;10.47;9.70;;;;;;;;;;5063701;28;20429;-78
2023/08/11 00:56:16;;;;;;;11.43;10.50;;;;;;;;;;5060828;28;20425;-79
2023/08/11 00:58:43;;;;;;;10.90;10.20;;;;;;;;;;5063542;28;20601;-78
2023/08/11 01:01:10;;;;;;;10.57;9.77;;;;;;;;;;5063699;28;20472;-79
2023/08/11 01:03:36;;;;;;;10.57;9.70;;;;;;;;;;5063439;28;20429;-78
2023/08/11 01:06:21;;;;;;;11.67;10.87;;;;;;;;;;5064187;28;20502;-78
2023/08/11 01:09:10;;;;;;;10.90;10.23;;;;;;;;;;5059296;28;20486;-78
2023/08/11 01:11:41;;;;;;;11.20;10.60;;;;;;;;;;5060192;28;20487;-78
2023/08/11 01:14:16;;;;;;;11.63;10.40;;;;;;;;;;5046504;28;20440;-77
2023/08/11 01:16:43;;;;;;;10.60;9.73;;;;;;;;;;5063795;28;20408;-77
2023/08/11 01:19:09;;;;;;;9.90;9.40;;;;;;;;;;5064265;28;20538;-78
2023/08/11 01:21:39;;;;;;;11.47;10.67;;;;;;;;;;5063545;28;20429;-78
2023/08/11 01:24:05;;;;;;;11.40;10.70;;;;;;;;;;5063756;28;20428;-79
2023/08/11 01:26:33;;;;;;;11.13;10.23;;;;;;;;;;5059258;28;20861;-78
2023/08/11 01:28:59;;;;;;;11.30;10.67;;;;;;;;;;5063309;28;20807;-77
2023/08/11 01:31:25;;;;;;;11.93;10.73;;;;;;;;;;5064988;28;20520;-77
2023/08/11 01:33:51;;;;;;;10.93;10.10;;;;;;;;;;5049541;28;20520;-78
2023/08/11 01:36:17;;;;;;;11.40;10.67;;;;;;;;;;5066955;28;20421;-77
2023/08/11 01:38:43;;;;;;;10.50;9.87;;;;;;;;;;5067558;28;20447;-78
2023/08/11 01:41:09;;;;;;;10.87;10.23;;;;;;;;;;5067790;28;20511;-78
2023/08/11 01:43:35;;;;;;;10.07;9.37;;;;;;;;;;5066905;28;20874;-77
2023/08/11 01:46:02;;;;;;;9.80;9.30;;;;;;;;;;5067404;28;20420;-76
2023/08/11 01:48:29;;;;;;;10.70;9.60;;;;;;;;;;5067605;28;20503;-77
2023/08/11 01:50:55;;;;;;;10.60;9.00;;;;;;;;;;5067452;28;20440;-77
2023/08/11 01:53:21;;;;;;;9.30;8.70;;;;;;;;;;5067565;28;20513;-78
2023/08/11 01:55:48;;;;;;;11.37;10.00;;;;;;;;;;5064100;28;20448;-78
2023/08/11 02:01:54;;;;;;;10.00;9.30;;;;;;;;;;5045366;28;20944;-79
2023/08/11 02:04:20;;;;;;;11.03;10.33;;;;;;;;;;5054453;28;20459;-77
2023/08/11 02:06:46;;;;;;;10.50;9.77;;;;;;;;;;5057783;28;20468;-78
2023/08/11 02:09:12;;;;;;;9.50;8.70;;;;;;;;;;5050453;28;20432;-77
2023/08/11 02:11:39;;;;;;;10.70;9.93;;;;;;;;;;5055960;28;20491;-77
2023/08/11 02:14:05;;;;;;;9.77;9.00;;;;;;;;;;5056053;28;20434;-78
2023/08/11 02:16:31;;;;;;;9.10;8.47;;;;;;;;;;5058433;28;20428;-77
2023/08/11 02:18:58;;;;;;;9.13;8.70;;;;;;;;;;5058114;28;20467;-77
2023/08/11 02:21:25;;;;;;;10.13;9.23;;;;;;;;;;5059749;28;20439;-79
2023/08/11 02:23:51;;;;;;;10.23;9.23;;;;;;;;;;5054336;28;20583;-78
2023/08/11 02:26:17;;;;;;;10.60;10.00;;;;;;;;;;5055608;28;20505;-77
2023/08/11 02:28:43;;;;;;;10.47;9.73;;;;;;;;;;5051620;28;20457;-79
2023/08/11 02:31:09;;;;;;;9.87;9.20;;;;;;;;;;5051899;28;20849;-78
2023/08/11 02:33:35;;;;;;;10.07;9.00;;;;;;;;;;5035553;28;20490;-77
2023/08/11 02:36:02;;;;;;;10.10;9.20;;;;;;;;;;5057001;28;20429;-78
2023/08/11 02:38:28;;;;;;;9.90;9.30;;;;;;;;;;5058781;28;20428;-77
2023/08/11 02:40:54;;;;;;;9.83;9.13;;;;;;;;;;5057780;28;21034;-78
2023/08/11 02:43:20;;;;;;;9.23;8.77;;;;;;;;;;5055429;28;20453;-78
2023/08/11 02:45:46;;;;;;;9.70;9.20;;;;;;;;;;5037433;28;20446;-78
2023/08/11 02:48:12;;;;;;;9.63;8.93;;;;;;;;;;5053891;28;20547;-78
2023/08/11 02:50:38;;;;;;;9.90;9.10;;;;;;;;;;5054140;28;20572;-78
2023/08/11 02:53:04;;;;;;;10.70;9.90;;;;;;;;;;5053088;28;20993;-78
2023/08/11 02:55:30;;;;;;;10.57;9.60;;;;;;;;;;5057287;28;20433;-78
2023/08/11 02:57:56;;;;;;;9.23;8.57;;;;;;;;;;5059348;28;21243;-77
2023/08/11 03:00:22;;;;;;;8.47;8.07;;;;;;;;;;5056583;28;20492;-77
2023/08/11 03:02:48;;;;;;;9.70;8.97;;;;;;;;;;5053266;28;20436;-77
2023/08/11 03:05:15;;;;;;;9.03;8.53;;;;;;;;;;5055382;28;20429;-78
2023/08/11 03:07:41;;;;;;;8.57;8.00;;;;;;;;;;5038774;28;20482;-77
2023/08/11 03:10:11;;;;;;;9.10;8.50;;;;;;;;;;5039359;28;20472;-78
2023/08/11 03:12:38;;;;;;;8.30;7.90;;;;;;;;;;5056885;28;20430;-79
2023/08/11 03:15:05;;;;;;;15.10;9.33;;;;;;;;;;5059299;28;20432;-77
2023/08/11 03:17:31;;;;;;;8.77;8.37;;;;;;;;;;5036289;28;20432;-77
2023/08/11 03:19:57;;;;;;;8.40;7.90;;;;;;;;;;5052067;28;20937;-77
2023/08/11 03:22:23;;;;;;;7.83;7.53;;;;;;;;;;5062473;28;20452;-77
2023/08/11 03:24:49;;;;;;;9.30;8.37;;;;;;;;;;5059181;28;20513;-77
2023/08/11 03:27:16;;;;;;;8.77;8.03;;;;;;;;;;5060172;28;20515;-78
2023/08/11 03:29:42;;;;;;;8.77;8.17;;;;;;;;;;5053547;28;20967;-77
2023/08/11 03:32:09;;;;;;;7.50;7.10;;;;;;;;;;5055676;28;20476;-77
2023/08/11 03:34:35;;;;;;;8.97;8.20;;;;;;;;;;5053556;28;20440;-76
2023/08/11 03:37:01;;;;;;;8.10;7.80;;;;;;;;;;5058791;28;20603;-79
2023/08/11 03:39:27;;;;;;;8.63;8.03;;;;;;;;;;5057179;28;20540;-78
2023/08/11 03:41:53;;;;;;;9.70;8.93;;;;;;;;;;5064018;28;20436;-78
2023/08/11 03:44:19;;;;;;;9.10;8.40;;;;;;;;;;5054797;28;20441;-78
2023/08/11 03:46:45;;;;;;;8.97;8.23;;;;;;;;;;5052608;28;20457;-77
2023/08/11 03:49:11;;;;;;;9.07;8.57;;;;;;;;;;5038803;28;20404;-79
2023/08/11 03:51:37;;;;;;;8.90;8.30;;;;;;;;;;5050984;28;20804;-78
2023/08/11 03:54:03;;;;;;;8.17;7.67;;;;;;;;;;5052445;28;20432;-78
2023/08/11 03:56:30;;;;;;;8.97;8.13;;;;;;;;;;5054821;28;20487;-77
2023/08/11 03:58:56;;;;;;;8.60;8.10;;;;;;;;;;5057078;28;20535;-78
2023/08/11 04:01:22;;;;;;;8.43;8.00;;;;;;;;;;5033876;28;20586;-78
2023/08/11 04:03:48;;;;;;;8.50;8.10;;;;;;;;;;5054297;28;20448;-79
2023/08/11 04:06:14;;;;;;;8.80;8.10;;;;;;;;;;5052283;28;21216;-76
2023/08/11 04:08:40;;;;;;;7.97;7.47;;;;;;;;;;5049558;28;20476;-78
2023/08/11 04:11:06;;;;;;;8.27;7.67;;;;;;;;;;5057966;28;20434;-78
2023/08/11 04:13:32;;;;;;;8.50;7.90;;;;;;;;;;5055845;28;20530;-78
2023/08/11 04:16:01;;;;;;;7.50;7.10;;;;;;;;;;5051411;28;20429;-78
2023/08/11 04:18:27;;;;;;;9.30;8.70;;;;;;;;;;5050976;28;20442;-77
2023/08/11 04:20:53;;;;;;;10.17;7.97;;;;;;;;;;5053695;28;20638;-77
2023/08/11 04:23:19;;;;;;;9.63;8.30;;;;;;;;;;5061963;28;20457;-77
2023/08/11 04:25:45;;;;;;;7.80;7.50;;;;;;;;;;5054078;28;20441;-78
2023/08/11 04:28:12;;;;;;;8.57;7.93;;;;;;;;;;5049153;28;20455;-78
2023/08/11 04:30:38;;;;;;;9.70;7.63;;;;;;;;;;5051112;28;20453;-77
2023/08/11 04:33:05;;;;;;;8.33;7.93;;;;;;;;;;5059358;28;20954;-77
2023/08/11 04:35:31;;;;;;;8.10;7.50;;;;;;;;;;5051914;28;20437;-77
2023/08/11 04:37:56;;;;;;;7.90;7.40;;;;;;;;;;5059007;28;20431;-78
2023/08/11 04:40:22;;;;;;;8.33;7.93;;;;;;;;;;5057867;28;20467;-78
2023/08/11 04:42:49;;;;;;;7.50;7.20;;;;;;;;;;5054001;28;20425;-78
2023/08/11 04:45:15;;;;;;;8.23;7.63;;;;;;;;;;5059327;28;20435;-78
2023/08/11 04:47:41;;;;;;;7.60;7.23;;;;;;;;;;5052514;28;20823;-80
2023/08/11 04:50:08;;;;;;;8.57;8.07;;;;;;;;;;5054751;28;20421;-77
2023/08/11 04:52:34;;;;;;;8.00;7.60;;;;;;;;;;5054698;28;20425;-77
2023/08/11 04:55:00;;;;;;;7.37;7.00;;;;;;;;;;5048981;28;20450;-78
2023/08/11 04:57:26;;;;;;;7.93;7.53;;;;;;;;;;5047850;28;20523;-78
2023/08/11 04:59:52;;;;;;;9.93;8.20;;;;;;;;;;5033254;28;20544;-78
2023/08/11 05:02:18;;;;;;;7.70;7.30;;;;;;;;;;5047482;28;20456;-78
2023/08/11 05:04:44;;;;;;;8.70;7.33;;;;;;;;;;5051437;28;20504;-78
2023/08/11 05:07:10;;;;;;;8.50;7.77;;;;;;;;;;5048524;28;20963;-78
2023/08/11 05:09:39;;;;;;;7.83;7.43;;;;;;;;;;5044448;28;20421;-78
2023/08/11 05:12:05;;;;;;;8.67;7.93;;;;;;;;;;5057275;28;20439;-79
2023/08/11 05:14:31;;;;;;;8.53;8.10;;;;;;;;;;5044797;28;20430;-80
2023/08/11 05:20:01;;;;;;;7.07;6.57;;;;;;;;;;5048860;28;20898;-78
2023/08/11 05:22:27;;;;;;;7.13;6.83;;;;;;;;;;5038789;28;20434;-79
2023/08/11 05:24:53;;;;;;;17.00;9.30;;;;;;;;;;5052780;28;20894;-79
2023/08/11 05:27:19;;;;;;;7.27;6.87;;;;;;;;;;5051182;28;20477;-77
2023/08/11 05:29:47;;;;;;;6.00;5.80;;;;;;;;;;5052001;28;20477;-78
2023/08/11 05:32:13;;;;;;;6.10;5.57;;;;;;;;;;5048948;28;20485;-77
2023/08/11 05:34:39;;;;;;;6.70;6.10;;;;;;;;;;5051219;28;20424;-79
2023/08/11 05:37:07;;;;;;;8.07;5.57;;;;;;;;;;5050849;28;20809;-78
2023/08/11 05:39:33;;;;;;;7.50;6.00;;;;;;;;;;5053778;28;20438;-78
2023/08/11 05:42:00;;;;;;;5.60;5.30;;;;;;;;;;5049634;28;20812;-79
2023/08/11 05:44:28;;;;;;;8.20;5.77;;;;;;;;;;5048516;28;20792;-77
2023/08/11 05:46:57;;;;;;;6.33;5.83;;;;;;;;;;5051147;28;20489;-79
2023/08/11 05:49:23;;;;;;;5.40;4.90;;;;;;;;;;5048889;28;20448;-78
2023/08/11 05:51:49;;;;;;;5.47;5.07;;;;;;;;;;5051128;28;20428;-78
2023/08/11 05:54:15;;;;;;;5.63;5.37;;;;;;;;;;5052325;28;20425;-79
2023/08/11 05:56:41;;;;;;;5.60;5.40;;;;;;;;;;5055262;28;20553;-79
2023/08/11 05:59:07;;;;;;;5.53;5.10;;;;;;;;;;5051837;28;20445;-80
2023/08/11 06:01:33;;;;;;;6.00;5.60;;;;;;;;;;5051737;28;20519;-79
2023/08/11 06:03:59;;;;;;;5.30;5.10;;;;;;;;;;5053862;28;20492;-79
2023/08/11 06:06:26;;;;;;;4.80;4.50;;;;;;;;;;5056012;28;20432;-79
2023/08/11 06:08:54;;;;;;;4.57;4.27;;;;;;;;;;5052559;28;20433;-78
2023/08/11 06:11:20;;;;;;;3.90;3.90;;;;;;;;;;5054941;28;20498;-78
2023/08/11 06:13:46;;;;;;;4.37;4.17;;;;;;;;;;5050837;28;20432;-79
2023/08/11 06:16:12;;;;;;;4.77;4.60;;;;;;;;;;5056287;28;20422;-79
2023/08/11 06:18:38;;;;;;;4.57;4.40;;;;;;;;;;5052148;28;20586;-79
2023/08/11 06:21:04;;;;;;;4.97;4.30;;;;;;;;;;5048026;28;20449;-78
2023/08/11 06:23:31;;;;;;;4.30;3.80;;;;;;;;;;5053113;28;20410;-79
2023/08/11 06:25:57;;;;;;;4.33;4.23;;;;;;;;;;5056486;28;20437;-79
2023/08/11 06:28:23;;;;;;;4.80;4.50;;;;;;;;;;5060027;28;21011;-78
2023/08/11 06:30:49;;;;;;;3.60;3.50;;;;;;;;;;5041480;28;20448;-78
2023/08/11 06:33:15;;;;;;;3.67;3.50;;;;;;;;;;5055308;28;20437;-77
2023/08/11 06:35:42;;;;;;;4.60;4.40;;;;;;;;;;5051074;28;20454;-78
2023/08/11 06:38:10;;;;;;;4.73;4.40;;;;;;;;;;5057853;28;20432;-74
2023/08/11 06:40:36;;;;;;;3.50;3.50;;;;;;;;;;5053405;28;20993;-77
2023/08/11 06:43:02;;;;;;;5.40;4.10;;;;;;;;;;5055837;28;20428;-77
2023/08/11 06:45:28;;;;;;;3.67;3.40;;;;;;;;;;5047348;28;20944;-78
2023/08/11 06:47:54;;;;;;;4.17;3.87;;;;;;;;;;5038521;28;20920;-78
2023/08/11 06:50:20;;;;;;;4.70;4.13;;;;;;;;;;5039056;28;20525;-77
2023/08/11 06:52:46;;;;;;;3.57;3.37;;;;;;;;;;5051645;28;20452;-80
2023/08/11 06:55:12;;;;;;;4.10;3.90;;;;;;;;;;5056554;28;20447;-78
2023/08/11 06:57:38;;;;;;;5.67;4.20;;;;;;;;;;5057798;28;20432;-77
2023/08/11 07:00:07;;;;;;;4.13;3.70;;;;;;;;;;5054369;28;21074;-79
2023/08/11 07:02:36;;;;;;;2.97;2.77;;;;;;;;;;5063041;28;20474;-78
2023/08/11 07:05:03;;;;;;;3.37;3.27;;;;;;;;;;5057114;28;20563;-78
2023/08/11 07:07:29;;;;;;;3.63;2.87;;;;;;;;;;5052210;28;20538;-78
2023/08/11 07:09:55;;;;;;;3.50;3.20;;;;;;;;;;5051325;28;20445;-79
2023/08/11 07:12:21;;;;;;;2.57;2.40;;;;;;;;;;5057532;28;20841;-79
2023/08/11 07:14:49;;;;;;;3.80;3.53;;;;;;;;;;5043203;28;20452;-79
2023/08/11 07:17:15;;;;;;;4.10;2.83;;;;;;;;;;5057666;28;20433;-80
2023/08/11 07:19:44;;;;;;;3.17;2.97;;;;;;;;;;5052223;28;20432;-79
2023/08/11 07:22:10;;;;;;;3.47;3.27;;;;;;;;;;5058817;28;20428;-80
2023/08/11 07:24:36;;;;;;;3.23;3.13;;;;;;;;;;5050313;28;20935;-80
2023/08/11 07:27:02;;;;;;;2.47;2.30;;;;;;;;;;5058684;28;20617;-79
2023/08/11 07:29:28;;;;;;;3.40;3.20;;;;;;;;;;5053189;28;20440;-80
2023/08/11 07:31:57;;;;;;;2.40;2.30;;;;;;;;;;5032501;28;20471;-78
2023/08/11 07:34:23;;;;;;;6.87;3.10;;;;;;;;;;5054230;28;20438;-80
2023/08/11 07:36:52;;;;;;;2.93;2.83;;;;;;;;;;5051271;28;20447;-80
2023/08/11 07:39:18;;;;;;;3.10;3.00;;;;;;;;;;5057284;28;20444;-82
2023/08/11 07:41:44;;;;;;;2.93;2.83;;;;;;;;;;5048818;28;20421;-78
2023/08/11 07:44:10;;;;;;;3.00;2.83;;;;;;;;;;5059949;28;20772;-80
2023/08/11 07:46:36;;;;;;;3.70;3.10;;;;;;;;;;5050447;28;20421;-81
2023/08/11 07:49:02;;;;;;;2.57;2.57;;;;;;;;;;5059083;28;20425;-80
2023/08/11 07:51:28;;;;;;;2.97;2.80;;;;;;;;;;5052450;28;20532;-82
2023/08/11 07:53:54;;;;;;;2.90;2.90;;;;;;;;;;5038972;28;20995;-81
2023/08/11 07:56:20;;;;;;;2.40;2.40;;;;;;;;;;5053573;28;20432;-81
2023/08/11 07:58:47;;;;;;;2.60;2.60;;;;;;;;;;5055971;28;20935;-80
2023/08/11 08:01:13;;;;;;;3.13;2.97;;;;;;;;;;5055171;28;20433;-81
2023/08/11 08:03:40;;;;;;;2.57;2.57;;;;;;;;;;5050531;28;20535;-82
2023/08/11 08:06:06;;;;;;;3.13;2.93;;;;;;;;;;5048682;28;20447;-80
2023/08/11 08:08:35;;;;;;;3.03;2.93;;;;;;;;;;5053074;28;20468;-81
2023/08/11 08:11:02;;;;;;;2.70;2.70;;;;;;;;;;5041960;28;20439;-80
2023/08/11 08:13:28;;;;;;;3.20;3.10;;;;;;;;;;5049981;28;20487;-80
2023/08/11 08:15:55;;;;;;;2.83;2.30;;;;;;;;;;5058321;28;20431;-80
2023/08/11 08:18:21;;;;;;;2.20;2.20;;;;;;;;;;5055056;28;20486;-78
2023/08/11 08:20:47;;;;;;;3.00;2.83;;;;;;;;;;5055260;28;20448;-79
2023/08/11 08:23:13;;;;;;;2.87;2.73;;;;;;;;;;5057368;28;20717;-79
2023/08/11 08:25:40;;;;;;;3.33;2.97;;;;;;;;;;5058320;28;20426;-79
2023/08/11 08:28:06;;;;;;;2.93;2.87;;;;;;;;;;5060131;28;20473;-79
2023/08/11 08:30:32;;;;;;;3.60;3.30;;;;;;;;;;5054117;28;20425;-79
2023/08/11 08:32:58;;;;;;;2.90;2.80;;;;;;;;;;5048736;28;20468;-79
2023/08/11 08:35:24;;;;;;;2.80;2.70;;;;;;;;;;5051490;28;20430;-79
2023/08/11 08:37:50;;;;;;;2.87;2.87;;;;;;;;;;5036996;28;20477;-78
2023/08/11 08:40:16;;;;;;;3.23;3.03;;;;;;;;;;5060208;28;20432;-79
2023/08/11 08:42:43;;;;;;;3.40;3.20;;;;;;;;;;5033631;28;20456;-79
2023/08/11 08:45:09;;;;;;;2.53;2.43;;;;;;;;;;5056891;28;20499;-80
2023/08/11 08:47:35;;;;;;;2.67;2.67;;;;;;;;;;5045840;28;20463;-79
2023/08/11 08:50:03;;;;;;;2.60;2.47;;;;;;;;;;5042333;28;20449;-79
2023/08/11 08:52:29;;;;;;;2.53;2.53;;;;;;;;;;5050329;28;20499;-79
2023/08/11 08:54:56;;;;;;;4.37;2.80;;;;;;;;;;5039051;28;20519;-79
2023/08/11 08:57:23;;;;;;;2.90;2.80;;;;;;;;;;5049304;28;20412;-79
2023/08/11 08:59:50;;;;;;;2.67;2.43;;;;;;;;;;5043976;28;21202;-80
2023/08/11 09:02:16;;;;;;;2.83;2.73;;;;;;;;;;5049425;28;20450;-79
2023/08/11 09:04:43;;;;;;;5.43;2.53;;;;;;;;;;5045533;28;20440;-80
2023/08/11 09:07:12;;;;;;;3.07;2.40;;;;;;;;;;5043794;28;20967;-80
2023/08/11 09:09:38;;;;;;;2.57;2.47;;;;;;;;;;5044878;28;20437;-80
2023/08/11 09:12:04;;;;;;;2.60;2.40;;;;;;;;;;5051827;28;20444;-78
2023/08/11 09:14:30;;;;;;;2.57;2.33;;;;;;;;;;5043745;28;20599;-76
2023/08/11 09:16:58;;;;;;;2.77;2.77;;;;;;;;;;5033989;28;20521;-78
2023/08/11 09:19:24;;;;;;;2.53;2.43;;;;;;;;;;5051393;28;20535;-79
2023/08/11 09:21:50;;;;;;;2.03;2.03;;;;;;;;;;5052121;28;20495;-79
2023/08/11 09:24:17;;;;;;;2.20;2.20;;;;;;;;;;5025474;28;20445;-78
2023/08/11 09:26:49;;;;;;;2.50;2.30;;;;;;;;;;5033531;28;21034;-79
2023/08/11 09:29:15;;;;;;;2.70;2.60;;;;;;;;;;5054085;28;20428;-78
2023/08/11 09:31:41;;;;;;;2.47;2.37;;;;;;;;;;5039046;28;20756;-78
2023/08/11 09:34:17;;;;;;;2.93;2.80;;;;;;;;;;5048312;28;20456;-78
2023/08/11 09:36:44;;;;;;;3.97;2.60;;;;;;;;;;5054923;28;20787;-79
2023/08/11 09:39:11;;;;;;;2.20;2.10;;;;;;;;;;5053341;28;20516;-77
2023/08/11 09:41:41;;;;;;;2.20;2.20;;;;;;;;;;5050276;28;20943;-77
2023/08/11 09:44:08;;;;;;;2.73;2.63;;;;;;;;;;5051580;28;20533;-79
2023/08/11 09:46:38;;;;;;;2.17;2.17;;;;;;;;;;5033168;28;22192;-78
2023/08/11 09:49:04;;;;;;;2.33;2.20;;;;;;;;;;5046755;28;20437;-78
2023/08/11 09:51:32;;;;;;;3.27;3.17;;;;;;;;;;5048850;28;20560;-76
2023/08/11 09:54:00;;;;;;;4.53;4.33;;;;;;;;;;5038696;28;20406;-76
2023/08/11 09:56:27;;;;;;;2.60;2.40;;;;;;;;;;5057174;28;20429;-78
2023/08/11 09:58:55;;;;;;;3.10;2.90;;;;;;;;;;5055040;28;20971;-77
2023/08/11 10:01:21;;;;;;;3.90;2.30;;;;;;;;;;5034610;28;20490;-76
2023/08/11 10:03:47;;;;;;;2.20;2.20;;;;;;;;;;5032130;28;20432;-78
2023/08/11 10:06:19;;;;;;;2.73;2.57;;;;;;;;;;5053693;28;20473;-79
2023/08/11 10:08:46;;;;;;;2.37;2.30;;;;;;;;;;5044285;28;20477;-77
2023/08/11 10:11:12;;;;;;;2.17;2.17;;;;;;;;;;5051361;28;20801;-77
2023/08/11 10:13:40;;;;;;;2.63;2.43;;;;;;;;;;5050572;28;21236;-77
2023/08/11 10:16:07;;;;;;;3.00;2.90;;;;;;;;;;5045896;28;20448;-78
2023/08/11 10:18:33;;;;;;;2.57;2.47;;;;;;;;;;5053684;28;20447;-77
2023/08/11 10:20:59;;;;;;;2.77;2.40;;;;;;;;;;5052584;28;20897;-78
2023/08/11 10:23:26;;;;;;;2.30;2.20;;;;;;;;;;5037262;28;20971;-77
2023/08/11 10:25:52;;;;;;;2.50;2.40;;;;;;;;;;5054046;28;20446;-78
2023/08/11 10:28:19;;;;;;;2.70;2.60;;;;;;;;;;5052104;28;20471;-78
2023/08/11 10:30:54;;;;;;;2.30;2.30;;;;;;;;;;5054177;28;21020;-79
2023/08/11 10:33:20;;;;;;;2.80;2.70;;;;;;;;;;5055445;28;20436;-79
2023/08/11 10:35:46;;;;;;;2.50;2.40;;;;;;;;;;5053979;28;20882;-78
2023/08/11 10:38:12;;;;;;;2.20;2.07;;;;;;;;;;5054348;28;20433;-78
2023/08/11 10:40:39;;;;;;;2.17;2.03;;;;;;;;;;5050938;28;20440;-77
2023/08/11 10:43:05;;;;;;;2.80;2.70;;;;;;;;;;5030141;28;20450;-78
2023/08/11 10:45:32;;;;;;;2.57;2.47;;;;;;;;;;5047627;28;20452;-79
2023/08/11 10:47:59;;;;;;;2.57;2.47;;;;;;;;;;5054202;28;20460;-77
2023/08/11 10:50:26;;;;;;;2.63;2.63;;;;;;;;;;5047628;28;20450;-79
2023/08/11 10:53:05;;;;;;;2.93;2.93;;;;;;;;;;5050912;28;21058;-78
2023/08/11 10:55:33;;;;;;;2.20;2.20;;;;;;;;;;5049354;28;20444;-79
2023/08/11 10:58:12;;;;;;;2.50;2.40;;;;;;;;;;5035683;28;20426;-80
2023/08/11 11:00:38;;;;;;;3.03;2.60;;;;;;;;;;5053304;28;20428;-77
2023/08/11 11:03:04;;;;;;;2.83;2.80;;;;;;;;;;5053847;28;20465;-78
2023/08/11 11:05:30;;;;;;;2.80;2.70;;;;;;;;;;5036958;28;20480;-81
2023/08/11 11:07:56;;;;;;;4.43;2.90;;;;;;;;;;5051132;28;20487;-79
2023/08/11 11:10:22;;;;;;;3.10;2.97;;;;;;;;;;5055884;28;20784;-78
2023/08/11 11:12:48;;;;;;;2.60;2.60;;;;;;;;;;5048041;28;20446;-77
2023/08/11 11:15:14;;;;;;;2.63;2.63;;;;;;;;;;5048229;28;20467;-78
2023/08/11 11:17:40;;;;;;;2.97;2.70;;;;;;;;;;5033344;28;20480;-77
2023/08/11 11:20:07;;;;;;;5.73;2.80;;;;;;;;;;5051051;28;20441;-78
2023/08/11 11:22:33;;;;;;;2.70;2.70;;;;;;;;;;5040773;28;20452;-78
2023/08/11 11:25:01;;;;;;;2.73;2.60;;;;;;;;;;5054427;28;20570;-78
2023/08/11 11:27:27;;;;;;;2.13;2.10;;;;;;;;;;5031673;28;20471;-79
2023/08/11 11:29:59;;;;;;;2.93;2.73;;;;;;;;;;5054145;28;20553;-78
2023/08/11 11:32:25;;;;;;;3.20;3.00;;;;;;;;;;5053002;28;20429;-79
2023/08/11 11:34:51;;;;;;;2.60;2.50;;;;;;;;;;5047930;28;20973;-77
2023/08/11 11:37:17;;;;;;;2.80;2.70;;;;;;;;;;5034869;28;20437;-78
2023/08/11 11:39:44;;;;;;;2.60;2.60;;;;;;;;;;5050703;28;20698;-78
2023/08/11 11:42:10;;;;;;;2.60;2.50;;;;;;;;;;5033388;28;20819;-78
2023/08/11 11:44:36;;;;;;;3.93;3.40;;;;;;;;;;5054825;28;20865;-79
2023/08/11 11:47:03;;;;;;;2.97;2.97;;;;;;;;;;5053015;28;21011;-78
2023/08/11 11:49:31;;;;;;;2.97;2.77;;;;;;;;;;5055439;28;20443;-80
2023/08/11 11:52:01;;;;;;;5.13;3.50;;;;;;;;;;5039295;28;20425;-78
2023/08/11 11:54:30;;;;;;;3.67;3.27;;;;;;;;;;5034263;28;20593;-79
2023/08/11 11:57:00;;;;;;;3.87;3.67;;;;;;;;;;5050896;28;20498;-78
2023/08/11 11:59:28;;;;;;;3.00;2.90;;;;;;;;;;5052938;28;20426;-78
2023/08/11 12:02:03;;;;;;;3.87;3.67;;;;;;;;;;5052487;28;20879;-78
2023/08/11 12:04:29;;;;;;;3.47;3.33;;;;;;;;;;5054862;28;20424;-79
2023/08/11 12:06:55;;;;;;;2.93;2.93;;;;;;;;;;5045918;28;20445;-76
2023/08/11 12:09:21;;;;;;;7.50;6.90;;;;;;;;;;5050165;28;20438;-79
2023/08/11 12:11:48;;;;;;;4.40;4.30;;;;;;;;;;5037221;28;20499;-78
2023/08/11 12:14:14;;;;;;;3.93;3.73;;;;;;;;;;5034313;28;20792;-76
2023/08/11 12:16:41;;;;;;;4.07;3.90;;;;;;;;;;5061070;28;20505;-78
2023/08/11 12:19:07;;;;;;;3.07;2.93;;;;;;;;;;5054407;28;20499;-76
2023/08/11 12:21:33;;;;;;;3.53;3.23;;;;;;;;;;5047488;28;21110;-75
2023/08/11 12:23:59;;;;;;;3.70;3.30;;;;;;;;;;5050475;28;20495;-77
2023/08/11 12:26:25;;;;;;;3.07;2.77;;;;;;;;;;5030869;28;20526;-76
2023/08/11 12:28:51;;;;;;;4.40;4.03;;;;;;;;;;5051455;28;20464;-76
2023/08/11 12:31:17;;;;;;;3.43;3.23;;;;;;;;;;5050373;28;21152;-78
2023/08/11 12:33:43;;;;;;;3.70;3.40;;;;;;;;;;5053282;28;20529;-76
2023/08/11 12:36:09;;;;;;;4.43;4.23;;;;;;;;;;5058004;28;20443;-78
2023/08/11 12:38:35;;;;;;;3.93;3.60;;;;;;;;;;5055878;28;20947;-77
2023/08/11 12:41:01;;;;;;;3.10;2.90;;;;;;;;;;5050425;28;20951;-76
2023/08/11 12:43:27;;;;;;;3.37;3.37;;;;;;;;;;5028988;28;20503;-77
2023/08/11 12:45:53;;;;;;;3.43;3.17;;;;;;;;;;5049926;28;20429;-77
2023/08/11 12:48:19;;;;;;;3.87;3.67;;;;;;;;;;5050692;28;20491;-77
2023/08/11 12:50:45;;;;;;;3.87;3.53;;;;;;;;;;5053116;28;20449;-78
2023/08/11 12:53:11;;;;;;;3.50;3.50;;;;;;;;;;5056315;28;20746;-77
2023/08/11 12:55:37;;;;;;;3.50;3.40;;;;;;;;;;5029199;28;20445;-77
2023/08/11 12:58:04;;;;;;;3.87;3.83;;;;;;;;;;5032322;28;20436;-77
2023/08/11 13:00:30;;;;;;;3.43;3.37;;;;;;;;;;5046320;28;20451;-78
2023/08/11 13:02:56;;;;;;;3.57;3.47;;;;;;;;;;5052363;28;20418;-77
2023/08/11 13:05:22;;;;;;;3.77;3.57;;;;;;;;;;5050190;28;20591;-77
2023/08/11 13:07:51;;;;;;;3.33;3.20;;;;;;;;;;5045353;28;21242;-77
2023/08/11 13:10:17;;;;;;;4.37;4.17;;;;;;;;;;5054010;28;20992;-77
2023/08/11 13:12:44;;;;;;;3.20;3.00;;;;;;;;;;5054503;28;20460;-78
2023/08/11 13:15:14;;;;;;;3.23;3.03;;;;;;;;;;5027810;28;20857;-79
2023/08/11 13:17:40;;;;;;;3.53;3.33;;;;;;;;;;5051537;28;20444;-76
2023/08/11 13:20:09;;;;;;;3.07;2.97;;;;;;;;;;5035295;28;20432;-76
2023/08/11 13:22:35;;;;;;;3.03;3.00;;;;;;;;;;5051628;28;20442;-78
2023/08/11 13:25:01;;;;;;;3.37;3.27;;;;;;;;;;5056960;28;20437;-74
2023/08/11 13:30:21;;;;;;;2.80;2.80;;;;;;;;;;5061503;28;20973;-75
2023/08/11 13:32:47;;;;;;;3.23;3.13;;;;;;;;;;5063164;28;20428;-74
2023/08/11 13:35:13;;;;;;;3.03;2.90;;;;;;;;;;5059704;28;20472;-76
2023/08/11 13:37:40;;;;;;;4.20;4.00;;;;;;;;;;5060396;28;20430;-75
2023/08/11 13:40:06;;;;;;;3.63;3.43;;;;;;;;;;5048509;28;20524;-76
2023/08/11 13:42:32;;;;;;;3.87;3.63;;;;;;;;;;5044259;28;20840;-76
2023/08/11 13:44:58;;;;;;;3.10;3.00;;;;;;;;;;5061374;28;20540;-75
2023/08/11 13:47:27;;;;;;;5.30;4.10;;;;;;;;;;5060426;28;20465;-75
2023/08/11 13:49:53;;;;;;;3.57;3.47;;;;;;;;;;5065214;28;20439;-76
2023/08/11 13:52:19;;;;;;;3.03;2.93;;;;;;;;;;5066440;28;20450;-77
2023/08/11 13:55:02;;;;;;;3.60;3.53;;;;;;;;;;5071018;28;20440;-77
2023/08/11 13:57:28;;;;;;;4.03;3.80;;;;;;;;;;5049514;28;20441;-77
2023/08/11 13:59:58;;;;;;;4.10;4.00;;;;;;;;;;5073476;28;20971;-78
2023/08/11 14:02:26;;;;;;;9.43;8.80;;;;;;;;;;5069834;28;20459;-75
2023/08/11 14:04:52;;;;;;;4.83;4.67;;;;;;;;;;5061747;28;20494;-78
2023/08/11 14:07:23;;;;;;;3.03;2.93;;;;;;;;;;5063180;28;20517;-75
2023/08/11 14:09:49;;;;;;;4.57;4.43;;;;;;;;;;5066952;28;20447;-78
2023/08/11 14:12:17;;;;;;;3.87;3.57;;;;;;;;;;5063793;28;20425;-76
2023/08/11 14:14:43;;;;;;;2.90;2.90;;;;;;;;;;5062658;28;20424;-77
2023/08/11 14:17:09;;;;;;;5.77;3.07;;;;;;;;;;5052280;28;20485;-77
2023/08/11 14:19:35;;;;;;;3.80;3.60;;;;;;;;;;5057159;28;20441;-77
2023/08/11 14:22:01;;;;;;;3.73;3.43;;;;;;;;;;5058114;28;20508;-75
2023/08/11 14:24:27;;;;;;;4.07;3.77;;;;;;;;;;5040727;28;20437;-76
2023/08/11 14:26:56;;;;;;;3.90;3.57;;;;;;;;;;5052994;28;20492;-78
2023/08/11 14:29:22;;;;;;;35.00;32.40;;;;;;;;;;5057355;28;20441;-77
2023/08/11 14:31:48;;;;;;;4.90;4.60;;;;;;;;;;5037163;28;20433;-77
2023/08/11 14:34:14;;;;;;;4.67;4.40;;;;;;;;;;5051660;28;20460;-77
2023/08/11 14:36:40;;;;;;;3.73;3.63;;;;;;;;;;5042718;28;20432;-76
2023/08/11 14:39:06;;;;;;;4.93;4.63;;;;;;;;;;5052597;28;20434;-78
2023/08/11 14:41:32;;;;;;;3.77;3.47;;;;;;;;;;5057208;28;20801;-76
2023/08/11 14:43:58;;;;;;;5.13;4.87;;;;;;;;;;5051722;28;20484;-78
2023/08/11 14:46:24;;;;;;;12.43;11.60;;;;;;;;;;5057485;28;20913;-79